sensor_id;sensor_type;location;lat;lon;timestamp;temperature;humidity
69747;DHT22;57018;50.278;19.134;2023-03-23T00:00:16;8.60;99.90
69747;DHT22;57018;50.278;19.134;2023-03-23T00:02:46;8.50;99.90
69747;DHT22;57018;50.278;19.134;2023-03-23T00:05:16;8.60;99.90
69747;DHT22;57018;50.278;19.134;2023-03-23T00:07:46;8.40;99.90
69747;DHT22;57018;50.278;19.134;2023-03-23T00:10:20;8.40;99.90
69747;DHT22;57018;50.278;19.134;2023-03-23T00:12:52;8.50;99.90
69747;DHT22;57018;50.278;19.134;2023-03-23T00:15:25;8.60;99.90
69747;DHT22;57018;50.278;19.134;2023-03-23T00:17:55;8.30;99.90
69747;DHT22;57018;50.278;19.134;2023-03-23T00:20:30;8.40;99.90
69747;DHT22;57018;50.278;19.134;2023-03-23T00:23:05;8.30;99.90
69747;DHT22;57018;50.278;19.134;2023-03-23T00:25:35;8.40;99.90
69747;DHT22;57018;50.278;19.134;2023-03-23T00:28:05;8.30;99.90
69747;DHT22;57018;50.278;19.134;2023-03-23T00:30:35;8.20;99.90
69747;DHT22;57018;50.278;19.134;2023-03-23T00:33:05;8.00;99.90
69747;DHT22;57018;50.278;19.134;2023-03-23T00:35:35;8.00;99.90
69747;DHT22;57018;50.278;19.134;2023-03-23T00:38:05;8.20;99.90
69747;DHT22;57018;50.278;19.134;2023-03-23T00:40:36;7.90;99.90
69747;DHT22;57018;50.278;19.134;2023-03-23T00:43:06;7.90;99.90
69747;DHT22;57018;50.278;19.134;2023-03-23T00:45:36;7.80;99.90
69747;DHT22;57018;50.278;19.134;2023-03-23T00:48:06;7.80;99.90
69747;DHT22;57018;50.278;19.134;2023-03-23T00:50:35;7.60;99.90
69747;DHT22;57018;50.278;19.134;2023-03-23T00:53:05;7.70;99.90
69747;DHT22;57018;50.278;19.134;2023-03-23T00:55:35;7.50;99.90
69747;DHT22;57018;50.278;19.134;2023-03-23T00:58:05;7.50;99.90
69747;DHT22;57018;50.278;19.134;2023-03-23T01:00:35;7.50;99.90
69747;DHT22;57018;50.278;19.134;2023-03-23T01:03:05;7.40;99.90
69747;DHT22;57018;50.278;19.134;2023-03-23T01:05:37;7.30;99.90
69747;DHT22;57018;50.278;19.134;2023-03-23T01:08:08;7.20;99.90
69747;DHT22;57018;50.278;19.134;2023-03-23T01:10:38;7.30;99.90
69747;DHT22;57018;50.278;19.134;2023-03-23T01:13:09;7.10;99.90
69747;DHT22;57018;50.278;19.134;2023-03-23T01:15:39;7.30;99.90
69747;DHT22;57018;50.278;19.134;2023-03-23T01:18:10;7.20;99.90
69747;DHT22;57018;50.278;19.134;2023-03-23T01:20:40;7.20;99.90
69747;DHT22;57018;50.278;19.134;2023-03-23T01:23:11;7.10;99.90
69747;DHT22;57018;50.278;19.134;2023-03-23T01:25:40;7.00;99.90
69747;DHT22;57018;50.278;19.134;2023-03-23T01:28:10;7.10;99.90
69747;DHT22;57018;50.278;19.134;2023-03-23T01:30:40;7.20;99.90
69747;DHT22;57018;50.278;19.134;2023-03-23T01:33:11;7.30;99.90
69747;DHT22;57018;50.278;19.134;2023-03-23T01:35:41;7.30;99.90
69747;DHT22;57018;50.278;19.134;2023-03-23T01:38:09;7.40;99.90
69747;DHT22;57018;50.278;19.134;2023-03-23T01:40:39;7.40;99.90
69747;DHT22;57018;50.278;19.134;2023-03-23T01:43:14;7.50;99.90
69747;DHT22;57018;50.278;19.134;2023-03-23T01:45:44;7.50;99.90
69747;DHT22;57018;50.278;19.134;2023-03-23T01:48:18;7.50;99.90
69747;DHT22;57018;50.278;19.134;2023-03-23T01:50:55;7.50;99.90
69747;DHT22;57018;50.278;19.134;2023-03-23T01:53:30;7.70;99.90
69747;DHT22;57018;50.278;19.134;2023-03-23T01:56:02;7.80;99.90
69747;DHT22;57018;50.278;19.134;2023-03-23T01:58:35;8.00;99.90
69747;DHT22;57018;50.278;19.134;2023-03-23T02:01:09;7.90;99.90
69747;DHT22;57018;50.278;19.134;2023-03-23T02:03:44;8.10;99.90
69747;DHT22;57018;50.278;19.134;2023-03-23T02:06:16;8.00;99.90
69747;DHT22;57018;50.278;19.134;2023-03-23T02:08:44;8.20;99.90
69747;DHT22;57018;50.278;19.134;2023-03-23T02:11:16;8.10;99.90
69747;DHT22;57018;50.278;19.134;2023-03-23T02:13:46;8.20;99.90
69747;DHT22;57018;50.278;19.134;2023-03-23T02:16:23;8.10;99.90
69747;DHT22;57018;50.278;19.134;2023-03-23T02:19:09;8.20;99.90
69747;DHT22;57018;50.278;19.134;2023-03-23T02:25:01;8.30;99.90
69747;DHT22;57018;50.278;19.134;2023-03-23T02:27:58;8.30;99.90
69747;DHT22;57018;50.278;19.134;2023-03-23T02:30:43;8.30;99.90
69747;DHT22;57018;50.278;19.134;2023-03-23T02:33:39;8.40;99.90
69747;DHT22;57018;50.278;19.134;2023-03-23T02:36:21;8.30;99.90
69747;DHT22;57018;50.278;19.134;2023-03-23T02:39:00;8.20;99.90
69747;DHT22;57018;50.278;19.134;2023-03-23T02:41:31;8.20;99.90
69747;DHT22;57018;50.278;19.134;2023-03-23T02:44:06;8.10;99.90
69747;DHT22;57018;50.278;19.134;2023-03-23T02:46:38;8.30;99.90
69747;DHT22;57018;50.278;19.134;2023-03-23T02:49:11;8.30;99.90
69747;DHT22;57018;50.278;19.134;2023-03-23T02:51:43;8.40;99.90
69747;DHT22;57018;50.278;19.134;2023-03-23T02:54:16;8.30;99.90
69747;DHT22;57018;50.278;19.134;2023-03-23T02:56:48;8.30;99.90
69747;DHT22;57018;50.278;19.134;2023-03-23T02:59:19;8.30;99.90
69747;DHT22;57018;50.278;19.134;2023-03-23T03:01:54;8.30;99.90
69747;DHT22;57018;50.278;19.134;2023-03-23T03:04:26;8.30;99.90
69747;DHT22;57018;50.278;19.134;2023-03-23T03:07:13;8.50;99.90
69747;DHT22;57018;50.278;19.134;2023-03-23T03:09:44;8.30;99.90
69747;DHT22;57018;50.278;19.134;2023-03-23T03:12:24;8.40;99.90
69747;DHT22;57018;50.278;19.134;2023-03-23T03:15:02;8.40;99.90
69747;DHT22;57018;50.278;19.134;2023-03-23T03:17:38;8.50;99.90
69747;DHT22;57018;50.278;19.134;2023-03-23T03:20:13;8.20;99.90
69747;DHT22;57018;50.278;19.134;2023-03-23T03:22:46;8.30;99.90
69747;DHT22;57018;50.278;19.134;2023-03-23T03:25:16;8.40;99.90
69747;DHT22;57018;50.278;19.134;2023-03-23T03:27:48;8.20;99.90
69747;DHT22;57018;50.278;19.134;2023-03-23T03:30:24;8.30;99.90
69747;DHT22;57018;50.278;19.134;2023-03-23T03:32:55;8.30;99.90
69747;DHT22;57018;50.278;19.134;2023-03-23T03:35:25;8.30;99.90
69747;DHT22;57018;50.278;19.134;2023-03-23T03:37:56;8.20;99.90
69747;DHT22;57018;50.278;19.134;2023-03-23T03:40:28;8.20;99.90
69747;DHT22;57018;50.278;19.134;2023-03-23T03:42:58;8.30;99.90
69747;DHT22;57018;50.278;19.134;2023-03-23T03:45:28;8.30;99.90
69747;DHT22;57018;50.278;19.134;2023-03-23T03:47:58;8.20;99.90
69747;DHT22;57018;50.278;19.134;2023-03-23T03:50:29;8.10;99.90
69747;DHT22;57018;50.278;19.134;2023-03-23T03:52:59;8.30;99.90
69747;DHT22;57018;50.278;19.134;2023-03-23T03:55:29;8.20;99.90
69747;DHT22;57018;50.278;19.134;2023-03-23T03:58:04;8.30;99.90
69747;DHT22;57018;50.278;19.134;2023-03-23T04:00:35;8.40;99.90
69747;DHT22;57018;50.278;19.134;2023-03-23T04:03:05;8.30;99.90
69747;DHT22;57018;50.278;19.134;2023-03-23T04:05:35;8.30;99.90
69747;DHT22;57018;50.278;19.134;2023-03-23T04:08:06;8.30;99.90
69747;DHT22;57018;50.278;19.134;2023-03-23T04:10:36;8.30;99.90
69747;DHT22;57018;50.278;19.134;2023-03-23T04:13:06;8.30;99.90
69747;DHT22;57018;50.278;19.134;2023-03-23T04:15:36;8.30;99.90
69747;DHT22;57018;50.278;19.134;2023-03-23T04:18:07;8.20;99.90
69747;DHT22;57018;50.278;19.134;2023-03-23T04:20:37;8.40;99.90
69747;DHT22;57018;50.278;19.134;2023-03-23T04:23:06;8.20;99.90
69747;DHT22;57018;50.278;19.134;2023-03-23T04:25:36;8.30;99.90
69747;DHT22;57018;50.278;19.134;2023-03-23T04:28:06;8.30;99.90
69747;DHT22;57018;50.278;19.134;2023-03-23T04:30:38;8.30;99.90
69747;DHT22;57018;50.278;19.134;2023-03-23T04:33:11;8.20;99.90
69747;DHT22;57018;50.278;19.134;2023-03-23T04:35:43;8.10;99.90
69747;DHT22;57018;50.278;19.134;2023-03-23T04:38:13;8.00;99.90
69747;DHT22;57018;50.278;19.134;2023-03-23T04:40:44;8.10;99.90
69747;DHT22;57018;50.278;19.134;2023-03-23T04:43:14;8.00;99.90
69747;DHT22;57018;50.278;19.134;2023-03-23T04:45:44;8.10;99.90
69747;DHT22;57018;50.278;19.134;2023-03-23T04:48:14;8.10;99.90
69747;DHT22;57018;50.278;19.134;2023-03-23T04:50:44;8.00;99.90
69747;DHT22;57018;50.278;19.134;2023-03-23T04:53:17;7.70;99.90
69747;DHT22;57018;50.278;19.134;2023-03-23T04:55:48;7.80;99.90
69747;DHT22;57018;50.278;19.134;2023-03-23T04:58:18;7.70;99.90
69747;DHT22;57018;50.278;19.134;2023-03-23T05:00:49;7.70;99.90
69747;DHT22;57018;50.278;19.134;2023-03-23T05:03:19;7.80;99.90
69747;DHT22;57018;50.278;19.134;2023-03-23T05:05:49;7.80;99.90
69747;DHT22;57018;50.278;19.134;2023-03-23T05:08:21;8.00;99.90
69747;DHT22;57018;50.278;19.134;2023-03-23T05:10:55;8.00;99.90
69747;DHT22;57018;50.278;19.134;2023-03-23T05:13:24;8.00;99.90
69747;DHT22;57018;50.278;19.134;2023-03-23T05:15:54;8.20;99.90
69747;DHT22;57018;50.278;19.134;2023-03-23T05:18:24;8.30;99.90
69747;DHT22;57018;50.278;19.134;2023-03-23T05:20:54;8.30;99.90
69747;DHT22;57018;50.278;19.134;2023-03-23T05:23:24;8.30;99.90
69747;DHT22;57018;50.278;19.134;2023-03-23T05:25:58;8.50;99.90
69747;DHT22;57018;50.278;19.134;2023-03-23T05:28:30;8.90;99.90
69747;DHT22;57018;50.278;19.134;2023-03-23T05:31:00;8.90;99.90
69747;DHT22;57018;50.278;19.134;2023-03-23T05:33:30;9.20;99.90
69747;DHT22;57018;50.278;19.134;2023-03-23T05:36:00;9.50;99.90
69747;DHT22;57018;50.278;19.134;2023-03-23T05:38:30;9.60;99.70
69747;DHT22;57018;50.278;19.134;2023-03-23T05:41:01;9.80;98.10
69747;DHT22;57018;50.278;19.134;2023-03-23T05:43:30;10.00;98.10
69747;DHT22;57018;50.278;19.134;2023-03-23T05:46:00;10.20;97.50
69747;DHT22;57018;50.278;19.134;2023-03-23T05:48:31;10.50;96.70
69747;DHT22;57018;50.278;19.134;2023-03-23T05:51:01;10.50;95.30
69747;DHT22;57018;50.278;19.134;2023-03-23T05:53:31;10.80;94.00
69747;DHT22;57018;50.278;19.134;2023-03-23T05:56:02;11.00;93.50
69747;DHT22;57018;50.278;19.134;2023-03-23T05:58:33;11.30;93.20
69747;DHT22;57018;50.278;19.134;2023-03-23T06:01:07;11.50;92.30
69747;DHT22;57018;50.278;19.134;2023-03-23T06:03:37;11.80;91.90
69747;DHT22;57018;50.278;19.134;2023-03-23T06:06:08;11.90;90.20
69747;DHT22;57018;50.278;19.134;2023-03-23T06:08:39;12.00;89.80
69747;DHT22;57018;50.278;19.134;2023-03-23T06:11:09;12.30;89.10
69747;DHT22;57018;50.278;19.134;2023-03-23T06:13:39;12.30;88.00
69747;DHT22;57018;50.278;19.134;2023-03-23T06:16:10;12.50;87.30
69747;DHT22;57018;50.278;19.134;2023-03-23T06:18:40;12.60;86.80
69747;DHT22;57018;50.278;19.134;2023-03-23T06:21:11;12.70;85.00
69747;DHT22;57018;50.278;19.134;2023-03-23T06:23:42;12.80;83.40
69747;DHT22;57018;50.278;19.134;2023-03-23T06:26:14;12.90;83.00
69747;DHT22;57018;50.278;19.134;2023-03-23T06:28:46;13.20;83.40
69747;DHT22;57018;50.278;19.134;2023-03-23T06:31:16;13.40;83.00
69747;DHT22;57018;50.278;19.134;2023-03-23T06:33:48;13.50;82.70
69747;DHT22;57018;50.278;19.134;2023-03-23T06:36:18;13.50;81.80
69747;DHT22;57018;50.278;19.134;2023-03-23T06:38:48;13.50;81.20
69747;DHT22;57018;50.278;19.134;2023-03-23T06:41:18;13.60;81.10
69747;DHT22;57018;50.278;19.134;2023-03-23T06:43:48;13.70;81.10
69747;DHT22;57018;50.278;19.134;2023-03-23T06:46:17;13.70;80.70
69747;DHT22;57018;50.278;19.134;2023-03-23T06:48:47;13.80;78.60
69747;DHT22;57018;50.278;19.134;2023-03-23T06:51:17;14.00;79.20
69747;DHT22;57018;50.278;19.134;2023-03-23T06:53:47;14.30;78.40
69747;DHT22;57018;50.278;19.134;2023-03-23T06:56:17;14.40;77.30
69747;DHT22;57018;50.278;19.134;2023-03-23T06:58:47;14.60;76.30
69747;DHT22;57018;50.278;19.134;2023-03-23T07:01:17;14.90;76.10
69747;DHT22;57018;50.278;19.134;2023-03-23T07:03:47;15.10;75.30
69747;DHT22;57018;50.278;19.134;2023-03-23T07:06:17;15.30;73.20
69747;DHT22;57018;50.278;19.134;2023-03-23T07:08:47;15.60;71.40
69747;DHT22;57018;50.278;19.134;2023-03-23T07:11:17;15.60;69.10
69747;DHT22;57018;50.278;19.134;2023-03-23T07:13:47;15.80;69.20
69747;DHT22;57018;50.278;19.134;2023-03-23T07:16:18;15.70;67.40
69747;DHT22;57018;50.278;19.134;2023-03-23T07:18:48;15.90;68.40
69747;DHT22;57018;50.278;19.134;2023-03-23T07:21:18;16.00;67.70
69747;DHT22;57018;50.278;19.134;2023-03-23T07:23:48;16.00;66.90
69747;DHT22;57018;50.278;19.134;2023-03-23T07:26:18;16.00;67.60
69747;DHT22;57018;50.278;19.134;2023-03-23T07:28:48;16.10;67.00
69747;DHT22;57018;50.278;19.134;2023-03-23T07:31:17;16.10;66.40
69747;DHT22;57018;50.278;19.134;2023-03-23T07:33:47;16.10;67.10
69747;DHT22;57018;50.278;19.134;2023-03-23T07:36:17;16.00;66.50
69747;DHT22;57018;50.278;19.134;2023-03-23T07:38:47;16.10;66.50
69747;DHT22;57018;50.278;19.134;2023-03-23T07:41:18;16.30;66.60
69747;DHT22;57018;50.278;19.134;2023-03-23T07:43:48;16.30;65.80
69747;DHT22;57018;50.278;19.134;2023-03-23T07:46:18;16.30;64.50
69747;DHT22;57018;50.278;19.134;2023-03-23T07:48:51;16.50;65.60
69747;DHT22;57018;50.278;19.134;2023-03-23T07:51:21;16.70;65.10
69747;DHT22;57018;50.278;19.134;2023-03-23T07:53:51;16.70;64.10
69747;DHT22;57018;50.278;19.134;2023-03-23T07:56:21;16.80;63.50
69747;DHT22;57018;50.278;19.134;2023-03-23T07:58:51;17.00;63.10
69747;DHT22;57018;50.278;19.134;2023-03-23T08:01:22;17.10;63.00
69747;DHT22;57018;50.278;19.134;2023-03-23T08:03:52;17.10;63.20
69747;DHT22;57018;50.278;19.134;2023-03-23T08:06:23;17.00;62.10
69747;DHT22;57018;50.278;19.134;2023-03-23T08:08:53;16.90;62.40
69747;DHT22;57018;50.278;19.134;2023-03-23T08:11:24;16.90;62.00
69747;DHT22;57018;50.278;19.134;2023-03-23T08:13:54;16.80;62.30
69747;DHT22;57018;50.278;19.134;2023-03-23T08:16:23;16.90;63.10
69747;DHT22;57018;50.278;19.134;2023-03-23T08:18:54;16.90;62.80
69747;DHT22;57018;50.278;19.134;2023-03-23T08:21:25;17.20;62.40
69747;DHT22;57018;50.278;19.134;2023-03-23T08:23:56;17.40;61.70
69747;DHT22;57018;50.278;19.134;2023-03-23T08:26:26;17.60;61.00
69747;DHT22;57018;50.278;19.134;2023-03-23T08:28:55;17.70;59.80
69747;DHT22;57018;50.278;19.134;2023-03-23T08:31:26;17.90;58.50
69747;DHT22;57018;50.278;19.134;2023-03-23T08:33:56;17.90;59.10
69747;DHT22;57018;50.278;19.134;2023-03-23T08:36:26;18.20;57.50
69747;DHT22;57018;50.278;19.134;2023-03-23T08:38:56;18.30;56.80
69747;DHT22;57018;50.278;19.134;2023-03-23T08:41:26;18.40;56.20
69747;DHT22;57018;50.278;19.134;2023-03-23T08:43:56;18.50;55.20
69747;DHT22;57018;50.278;19.134;2023-03-23T08:46:26;18.80;54.60
69747;DHT22;57018;50.278;19.134;2023-03-23T08:48:57;18.90;54.00
69747;DHT22;57018;50.278;19.134;2023-03-23T08:51:27;19.00;54.00
69747;DHT22;57018;50.278;19.134;2023-03-23T08:53:57;19.10;54.10
69747;DHT22;57018;50.278;19.134;2023-03-23T08:56:27;19.10;53.30
69747;DHT22;57018;50.278;19.134;2023-03-23T08:58:57;19.30;53.40
69747;DHT22;57018;50.278;19.134;2023-03-23T09:01:27;19.50;52.50
69747;DHT22;57018;50.278;19.134;2023-03-23T09:03:56;19.70;51.90
69747;DHT22;57018;50.278;19.134;2023-03-23T09:06:27;20.10;51.70
69747;DHT22;57018;50.278;19.134;2023-03-23T09:08:57;20.40;51.20
69747;DHT22;57018;50.278;19.134;2023-03-23T09:11:29;20.80;49.80
69747;DHT22;57018;50.278;19.134;2023-03-23T09:13:57;21.00;47.60
69747;DHT22;57018;50.278;19.134;2023-03-23T09:16:27;21.20;47.60
69747;DHT22;57018;50.278;19.134;2023-03-23T09:18:57;21.20;46.90
69747;DHT22;57018;50.278;19.134;2023-03-23T09:21:28;21.30;46.50
69747;DHT22;57018;50.278;19.134;2023-03-23T09:23:58;21.30;47.10
69747;DHT22;57018;50.278;19.134;2023-03-23T09:26:30;21.00;45.80
69747;DHT22;57018;50.278;19.134;2023-03-23T09:29:00;20.70;47.40
69747;DHT22;57018;50.278;19.134;2023-03-23T09:31:30;20.60;48.00
69747;DHT22;57018;50.278;19.134;2023-03-23T09:34:00;20.40;47.80
69747;DHT22;57018;50.278;19.134;2023-03-23T09:36:32;20.40;48.70
69747;DHT22;57018;50.278;19.134;2023-03-23T09:39:02;20.40;48.40
69747;DHT22;57018;50.278;19.134;2023-03-23T09:41:58;20.20;48.50
69747;DHT22;57018;50.278;19.134;2023-03-23T09:44:37;20.10;48.50
69747;DHT22;57018;50.278;19.134;2023-03-23T09:47:14;19.90;49.20
69747;DHT22;57018;50.278;19.134;2023-03-23T09:49:52;19.70;49.60
69747;DHT22;57018;50.278;19.134;2023-03-23T09:52:21;19.60;50.10
69747;DHT22;57018;50.278;19.134;2023-03-23T09:54:54;19.60;50.30
69747;DHT22;57018;50.278;19.134;2023-03-23T09:57:28;19.60;50.10
69747;DHT22;57018;50.278;19.134;2023-03-23T10:00:03;19.60;49.70
69747;DHT22;57018;50.278;19.134;2023-03-23T10:02:43;19.80;50.10
69747;DHT22;57018;50.278;19.134;2023-03-23T10:05:34;19.80;49.70
69747;DHT22;57018;50.278;19.134;2023-03-23T10:08:10;19.80;50.50
69747;DHT22;57018;50.278;19.134;2023-03-23T10:10:52;19.90;49.00
69747;DHT22;57018;50.278;19.134;2023-03-23T10:13:35;19.90;48.50
69747;DHT22;57018;50.278;19.134;2023-03-23T10:16:12;19.90;47.80
69747;DHT22;57018;50.278;19.134;2023-03-23T10:18:49;19.90;48.70
69747;DHT22;57018;50.278;19.134;2023-03-23T10:21:23;19.90;48.90
69747;DHT22;57018;50.278;19.134;2023-03-23T10:23:58;19.80;48.30
69747;DHT22;57018;50.278;19.134;2023-03-23T10:26:36;19.90;48.40
69747;DHT22;57018;50.278;19.134;2023-03-23T10:29:16;19.90;48.30
69747;DHT22;57018;50.278;19.134;2023-03-23T10:31:49;20.00;47.70
69747;DHT22;57018;50.278;19.134;2023-03-23T10:34:27;20.10;47.00
69747;DHT22;57018;50.278;19.134;2023-03-23T10:37:05;20.20;47.00
69747;DHT22;57018;50.278;19.134;2023-03-23T10:39:44;20.40;45.80
69747;DHT22;57018;50.278;19.134;2023-03-23T10:42:20;20.80;44.80
69747;DHT22;57018;50.278;19.134;2023-03-23T10:44:50;21.40;42.10
69747;DHT22;57018;50.278;19.134;2023-03-23T10:47:21;21.60;41.00
69747;DHT22;57018;50.278;19.134;2023-03-23T10:49:54;22.00;40.50
69747;DHT22;57018;50.278;19.134;2023-03-23T10:52:33;21.90;38.70
69747;DHT22;57018;50.278;19.134;2023-03-23T10:55:07;21.80;38.30
69747;DHT22;57018;50.278;19.134;2023-03-23T10:57:38;21.90;38.20
69747;DHT22;57018;50.278;19.134;2023-03-23T11:00:20;21.50;38.30
69747;DHT22;57018;50.278;19.134;2023-03-23T11:03:00;21.20;39.40
69747;DHT22;57018;50.278;19.134;2023-03-23T11:05:37;21.10;40.10
69747;DHT22;57018;50.278;19.134;2023-03-23T11:08:16;20.90;40.30
69747;DHT22;57018;50.278;19.134;2023-03-23T11:10:51;20.70;41.90
69747;DHT22;57018;50.278;19.134;2023-03-23T11:13:27;20.60;42.80
69747;DHT22;57018;50.278;19.134;2023-03-23T11:15:57;20.50;42.80
69747;DHT22;57018;50.278;19.134;2023-03-23T11:18:35;20.40;43.10
69747;DHT22;57018;50.278;19.134;2023-03-23T11:21:07;20.40;43.50
69747;DHT22;57018;50.278;19.134;2023-03-23T11:23:39;20.40;43.80
69747;DHT22;57018;50.278;19.134;2023-03-23T11:26:17;20.30;44.10
69747;DHT22;57018;50.278;19.134;2023-03-23T11:28:53;20.10;43.90
69747;DHT22;57018;50.278;19.134;2023-03-23T11:31:27;20.10;44.40
69747;DHT22;57018;50.278;19.134;2023-03-23T11:34:00;19.90;44.30
69747;DHT22;57018;50.278;19.134;2023-03-23T11:36:38;19.90;44.60
69747;DHT22;57018;50.278;19.134;2023-03-23T11:39:24;19.90;44.50
69747;DHT22;57018;50.278;19.134;2023-03-23T11:41:57;19.90;44.80
69747;DHT22;57018;50.278;19.134;2023-03-23T11:44:40;19.80;44.50
69747;DHT22;57018;50.278;19.134;2023-03-23T11:47:20;19.80;44.80
69747;DHT22;57018;50.278;19.134;2023-03-23T11:49:57;19.70;45.10
69747;DHT22;57018;50.278;19.134;2023-03-23T11:52:36;19.50;45.30
69747;DHT22;57018;50.278;19.134;2023-03-23T11:55:13;19.60;46.20
69747;DHT22;57018;50.278;19.134;2023-03-23T11:57:44;19.70;45.50
69747;DHT22;57018;50.278;19.134;2023-03-23T12:00:17;19.70;45.80
69747;DHT22;57018;50.278;19.134;2023-03-23T12:05:59;20.20;44.80
69747;DHT22;57018;50.278;19.134;2023-03-23T12:08:58;20.40;44.60
69747;DHT22;57018;50.278;19.134;2023-03-23T12:11:36;20.90;44.20
69747;DHT22;57018;50.278;19.134;2023-03-23T12:14:16;21.40;41.80
69747;DHT22;57018;50.278;19.134;2023-03-23T12:17:00;21.70;41.20
69747;DHT22;57018;50.278;19.134;2023-03-23T12:19:40;21.90;40.50
69747;DHT22;57018;50.278;19.134;2023-03-23T12:22:21;21.90;40.40
69747;DHT22;57018;50.278;19.134;2023-03-23T12:25:04;22.10;40.00
69747;DHT22;57018;50.278;19.134;2023-03-23T12:27:42;22.10;40.10
69747;DHT22;57018;50.278;19.134;2023-03-23T12:30:26;22.20;39.70
69747;DHT22;57018;50.278;19.134;2023-03-23T12:33:11;22.30;39.80
69747;DHT22;57018;50.278;19.134;2023-03-23T12:35:50;22.50;39.80
69747;DHT22;57018;50.278;19.134;2023-03-23T12:38:40;22.40;39.10
69747;DHT22;57018;50.278;19.134;2023-03-23T12:41:20;22.50;39.00
69747;DHT22;57018;50.278;19.134;2023-03-23T12:43:56;22.50;39.40
69747;DHT22;57018;50.278;19.134;2023-03-23T12:46:42;22.50;39.20
69747;DHT22;57018;50.278;19.134;2023-03-23T12:49:19;22.30;39.50
69747;DHT22;57018;50.278;19.134;2023-03-23T12:51:57;22.20;39.60
69747;DHT22;57018;50.278;19.134;2023-03-23T12:54:31;22.20;39.50
69747;DHT22;57018;50.278;19.134;2023-03-23T12:57:07;21.80;39.90
69747;DHT22;57018;50.278;19.134;2023-03-23T12:59:44;21.60;40.20
69747;DHT22;57018;50.278;19.134;2023-03-23T13:02:22;21.40;40.50
69747;DHT22;57018;50.278;19.134;2023-03-23T13:04:59;21.10;40.90
69747;DHT22;57018;50.278;19.134;2023-03-23T13:07:35;21.00;41.00
69747;DHT22;57018;50.278;19.134;2023-03-23T13:10:15;21.10;41.70
69747;DHT22;57018;50.278;19.134;2023-03-23T13:12:50;21.30;40.90
69747;DHT22;57018;50.278;19.134;2023-03-23T13:15:31;21.40;40.90
69747;DHT22;57018;50.278;19.134;2023-03-23T13:18:10;21.30;41.00
69747;DHT22;57018;50.278;19.134;2023-03-23T13:20:55;21.00;41.50
69747;DHT22;57018;50.278;19.134;2023-03-23T13:23:31;20.90;41.60
69747;DHT22;57018;50.278;19.134;2023-03-23T13:26:05;20.90;43.40
69747;DHT22;57018;50.278;19.134;2023-03-23T13:28:50;20.80;43.90
69747;DHT22;57018;50.278;19.134;2023-03-23T13:31:24;20.60;44.00
69747;DHT22;57018;50.278;19.134;2023-03-23T13:34:04;20.50;44.00
69747;DHT22;57018;50.278;19.134;2023-03-23T13:36:37;20.40;43.90
69747;DHT22;57018;50.278;19.134;2023-03-23T13:39:21;20.40;44.30
69747;DHT22;57018;50.278;19.134;2023-03-23T13:42:04;20.30;45.10
69747;DHT22;57018;50.278;19.134;2023-03-23T13:44:55;20.20;44.60
69747;DHT22;57018;50.278;19.134;2023-03-23T13:47:35;20.40;44.70
69747;DHT22;57018;50.278;19.134;2023-03-23T13:50:12;20.60;44.00
69747;DHT22;57018;50.278;19.134;2023-03-23T13:52:57;20.80;43.60
69747;DHT22;57018;50.278;19.134;2023-03-23T13:55:42;20.90;41.50
69747;DHT22;57018;50.278;19.134;2023-03-23T13:58:25;21.00;41.80
69747;DHT22;57018;50.278;19.134;2023-03-23T14:01:15;21.20;41.70
69747;DHT22;57018;50.278;19.134;2023-03-23T14:03:48;21.20;41.70
69747;DHT22;57018;50.278;19.134;2023-03-23T14:06:21;21.20;41.40
69747;DHT22;57018;50.278;19.134;2023-03-23T14:08:55;21.20;41.00
69747;DHT22;57018;50.278;19.134;2023-03-23T14:11:27;21.10;41.30
69747;DHT22;57018;50.278;19.134;2023-03-23T14:14:04;21.00;41.50
69747;DHT22;57018;50.278;19.134;2023-03-23T14:16:39;20.90;43.30
69747;DHT22;57018;50.278;19.134;2023-03-23T14:19:17;20.60;42.90
69747;DHT22;57018;50.278;19.134;2023-03-23T14:21:54;20.50;43.10
69747;DHT22;57018;50.278;19.134;2023-03-23T14:24:26;20.30;43.80
69747;DHT22;57018;50.278;19.134;2023-03-23T14:27:09;20.30;43.70
69747;DHT22;57018;50.278;19.134;2023-03-23T14:29:40;20.20;43.70
69747;DHT22;57018;50.278;19.134;2023-03-23T14:32:15;20.20;43.60
69747;DHT22;57018;50.278;19.134;2023-03-23T14:34:48;20.10;44.00
69747;DHT22;57018;50.278;19.134;2023-03-23T14:37:18;20.00;44.00
69747;DHT22;57018;50.278;19.134;2023-03-23T14:39:52;19.90;44.40
69747;DHT22;57018;50.278;19.134;2023-03-23T14:42:28;19.90;44.80
69747;DHT22;57018;50.278;19.134;2023-03-23T14:45:01;19.90;44.40
69747;DHT22;57018;50.278;19.134;2023-03-23T14:47:35;19.80;44.60
69747;DHT22;57018;50.278;19.134;2023-03-23T14:50:24;19.80;44.70
69747;DHT22;57018;50.278;19.134;2023-03-23T14:52:55;19.80;44.90
69747;DHT22;57018;50.278;19.134;2023-03-23T14:55:26;19.80;45.00
69747;DHT22;57018;50.278;19.134;2023-03-23T14:58:07;19.70;45.30
69747;DHT22;57018;50.278;19.134;2023-03-23T15:00:41;19.70;45.10
69747;DHT22;57018;50.278;19.134;2023-03-23T15:03:16;19.60;44.80
69747;DHT22;57018;50.278;19.134;2023-03-23T15:05:48;19.60;45.70
69747;DHT22;57018;50.278;19.134;2023-03-23T15:08:25;19.60;45.30
69747;DHT22;57018;50.278;19.134;2023-03-23T15:11:06;19.60;45.40
69747;DHT22;57018;50.278;19.134;2023-03-23T15:13:41;19.50;45.70
69747;DHT22;57018;50.278;19.134;2023-03-23T15:16:17;19.50;45.60
69747;DHT22;57018;50.278;19.134;2023-03-23T15:18:53;19.40;46.00
69747;DHT22;57018;50.278;19.134;2023-03-23T15:21:26;19.30;45.80
69747;DHT22;57018;50.278;19.134;2023-03-23T15:23:57;19.30;45.90
69747;DHT22;57018;50.278;19.134;2023-03-23T15:26:30;19.10;46.80
69747;DHT22;57018;50.278;19.134;2023-03-23T15:29:12;19.10;46.60
69747;DHT22;57018;50.278;19.134;2023-03-23T15:31:46;18.90;47.00
69747;DHT22;57018;50.278;19.134;2023-03-23T15:34:28;19.00;47.20
69747;DHT22;57018;50.278;19.134;2023-03-23T15:37:03;18.80;47.10
69747;DHT22;57018;50.278;19.134;2023-03-23T15:39:33;18.90;47.20
69747;DHT22;57018;50.278;19.134;2023-03-23T15:42:06;18.80;47.50
69747;DHT22;57018;50.278;19.134;2023-03-23T15:44:35;18.90;47.40
69747;DHT22;57018;50.278;19.134;2023-03-23T15:47:18;18.80;47.50
69747;DHT22;57018;50.278;19.134;2023-03-23T15:50:01;18.80;47.70
69747;DHT22;57018;50.278;19.134;2023-03-23T15:52:31;18.80;47.90
69747;DHT22;57018;50.278;19.134;2023-03-23T15:55:01;18.80;48.00
69747;DHT22;57018;50.278;19.134;2023-03-23T15:57:31;18.70;47.80
69747;DHT22;57018;50.278;19.134;2023-03-23T16:00:01;18.70;47.70
69747;DHT22;57018;50.278;19.134;2023-03-23T16:02:31;18.80;47.50
69747;DHT22;57018;50.278;19.134;2023-03-23T16:05:03;18.80;47.60
69747;DHT22;57018;50.278;19.134;2023-03-23T16:07:34;18.70;47.70